Weather at Ciljuge Sport Airfield [CLOSED]

Public forecast

Using degrees Celsius for public forecast. Weather courtesy of forecast.io.

Closest aviation weather report (METAR) to Ciljuge Sport Airfield

Closest report is Tuzla International Airport, 2.1 nm (3.9 km) NE.

2024/07/23 12:00 (retrieved 13 minutes ago)

LQTZ 231200Z 29007KT 220V330 9999 SCT050 31/18 Q1015

Closest aviation forecast (TAF) to Ciljuge Sport Airfield

Closest forecast is Tuzla International Airport, 2.1 nm (3.9 km) NE.

2024/07/23 12:11 (retrieved 2 minutes ago)

TAF LQTZ 231100Z 2312/2412 32007KT 9999 SCT045 TX31/2313Z TN18/2403Z PROB30 TEMPO 2314/2324 VRB15KT 4000 TSRA FEW040CB BKN045 TEMPO 2405/2409 34015G25KT TSRA FEW030CB BKN040